Decoded Metar for LICG (PANTELLERIA in ITALY) (IATA:PNL) | Meteo·Mobile Aviation Weather
aviador You're here:

LICG Decoded Metar

PANTELLERIA in ITALY
Report Time2018-12-14 11:55:00
UTC Time2018-12-14 12:17:34
Flight Rules vfr VFR
Wind180° at 14 kt
W.Decomp.*RWY 21: 11.9 kt HW 7.4 kt LCW
RWY 26: 1.9 kt HW 13.9 kt LCW
W.Rank180° ranks 11
Current wind is above 180° avg. (12.1)
Visibility9999 m
Phenomena:N/A
Clouds:Few 020 Hf
Scattered 035 Hf
Expected CloudBase > 800 ft AGL from Temp-Dew spread
CeilingNone
Temp15°C (ISA +1)
Dew Point13°C (88% RH)
AAT10.9°C
QNH1006 hPa
Density Alt1,214 ft
Elevation627 ft
Report Wrong Elevation
Raw Report
METAR LICG 141155Z 18014KT 9999 FEW020 SCT035 15/13 Q1006=

Extra information for LICG:More info

Metar Taf Metar & Taf Last 4 Metars F.Rules Stats Wind Profile Meteogram Temp Stats Airport Information Weather charts Add Link Nearby VenuesMetar ALERT Operation Metar Decoded Social comments